createdAt,value
2023-04-11T00:00:30.058Z,7.45
2023-04-11T00:03:02.034Z,7.42
2023-04-11T00:05:31.254Z,7.41
2023-04-11T00:07:57.691Z,7.39
2023-04-11T00:10:24.508Z,7.38
2023-04-11T00:12:51.037Z,7.35
2023-04-11T00:15:17.572Z,7.31
2023-04-11T00:17:45.505Z,7.28
2023-04-11T00:20:13.056Z,7.28
2023-04-11T00:22:39.675Z,7.36
2023-04-11T00:25:07.065Z,7.36
2023-04-11T00:27:33.589Z,7.32
2023-04-11T00:30:00.779Z,7.36
2023-04-11T00:32:27.857Z,7.37
2023-04-11T00:34:55.308Z,7.33
2023-04-11T00:37:22.158Z,7.36
2023-04-11T00:39:55.692Z,7.35
2023-04-11T00:42:22.228Z,7.38
2023-04-11T00:44:48.870Z,7.38
2023-04-11T00:47:15.610Z,7.34
2023-04-11T00:49:42.327Z,7.33
2023-04-11T00:52:09.365Z,7.31
2023-04-11T00:54:35.964Z,7.32
2023-04-11T00:57:04.298Z,7.33
2023-04-11T00:59:32.298Z,7.33
2023-04-11T01:01:59.849Z,7.37
2023-04-11T01:04:26.374Z,7.39
2023-04-11T01:07:03.894Z,7.46
2023-04-11T01:09:33.380Z,7.48
2023-04-11T01:12:01.489Z,7.50
2023-04-11T01:14:28.644Z,7.55
2023-04-11T01:16:56.685Z,7.59
2023-04-11T01:19:26.246Z,7.63
2023-04-11T01:21:53.900Z,7.64
2023-04-11T01:24:20.542Z,7.60
2023-04-11T01:26:47.041Z,7.62
2023-04-11T01:29:13.500Z,7.64
2023-04-11T01:31:39.875Z,7.63
2023-04-11T01:34:06.299Z,7.63
2023-04-11T01:36:33.004Z,7.60
2023-04-11T01:38:59.810Z,7.64
2023-04-11T01:41:27.528Z,7.64
2023-04-11T01:43:54.184Z,7.65
2023-04-11T01:46:21.816Z,7.68
2023-04-11T01:48:50.544Z,7.71
2023-04-11T01:51:17.172Z,7.78
2023-04-11T01:53:45.947Z,7.76
2023-04-11T01:56:13.144Z,7.77
2023-04-11T01:58:39.971Z,7.81
2023-04-11T02:01:06.836Z,7.83
2023-04-11T02:03:33.445Z,7.79
2023-04-11T02:05:59.889Z,7.77
2023-04-11T02:08:26.265Z,7.81
2023-04-11T02:10:52.643Z,7.83
2023-04-11T02:13:19.148Z,7.82
2023-04-11T02:15:45.606Z,7.78
2023-04-11T02:18:12.092Z,7.77
2023-04-11T02:20:40.474Z,7.75
2023-04-11T02:23:07.455Z,7.71
2023-04-11T02:25:34.263Z,7.67
2023-04-11T02:28:00.968Z,7.65
2023-04-11T02:30:27.377Z,7.66
2023-04-11T02:32:54.019Z,7.68
2023-04-11T02:35:20.462Z,7.74
2023-04-11T02:37:46.860Z,7.81
2023-04-11T02:40:13.243Z,7.83
2023-04-11T02:42:43.061Z,7.85
2023-04-11T02:45:10.232Z,7.90
2023-04-11T02:47:36.609Z,7.88
2023-04-11T02:50:03.185Z,7.90
2023-04-11T02:52:29.620Z,7.92
2023-04-11T02:54:56.098Z,7.92
2023-04-11T02:57:22.447Z,7.91
2023-04-11T02:59:48.850Z,7.90
2023-04-11T03:02:15.488Z,7.86
2023-04-11T03:04:41.946Z,7.81
2023-04-11T03:07:08.289Z,7.78
2023-04-11T03:09:34.708Z,7.76
2023-04-11T03:12:01.331Z,7.70
2023-04-11T03:14:27.819Z,7.63
2023-04-11T03:16:54.225Z,7.59
2023-04-11T03:19:21.097Z,7.63
2023-04-11T03:21:47.508Z,7.63
2023-04-11T03:24:13.896Z,7.71
2023-04-11T03:26:40.478Z,7.72
2023-04-11T03:29:06.982Z,7.66
2023-04-11T03:31:33.545Z,7.60
2023-04-11T03:33:59.958Z,7.59
2023-04-11T03:36:29.862Z,7.55
2023-04-11T03:38:56.421Z,7.56
2023-04-11T03:41:23.044Z,7.61
2023-04-11T03:43:49.470Z,7.63
2023-04-11T03:46:15.922Z,7.62
2023-04-11T03:48:42.352Z,7.63
2023-04-11T03:51:08.815Z,7.67
2023-04-11T03:53:35.227Z,7.66
2023-04-11T03:56:01.906Z,7.68
2023-04-11T03:58:28.292Z,7.64
2023-04-11T04:00:54.742Z,7.56
2023-04-11T04:03:21.562Z,7.48
2023-04-11T04:05:48.086Z,7.45
2023-04-11T04:08:14.713Z,7.46
2023-04-11T04:10:41.142Z,7.50
2023-04-11T04:13:07.520Z,7.53
2023-04-11T04:15:34.186Z,7.52
2023-04-11T04:18:00.674Z,7.52
2023-04-11T04:20:27.204Z,7.50
2023-04-11T04:22:53.842Z,7.50
2023-04-11T04:25:20.594Z,7.48
2023-04-11T04:27:47.660Z,7.44
2023-04-11T04:30:19.042Z,7.42
2023-04-11T04:32:45.989Z,7.40
2023-04-11T04:35:14.174Z,7.37
2023-04-11T04:37:45.589Z,7.37
2023-04-11T04:40:13.977Z,7.38
2023-04-11T04:42:44.018Z,7.33
2023-04-11T04:45:11.303Z,7.33
2023-04-11T04:47:38.581Z,7.22
2023-04-11T04:50:05.994Z,7.14
2023-04-11T04:52:32.456Z,7.07
2023-04-11T04:54:59.120Z,7.05
2023-04-11T04:57:27.215Z,7.02
2023-04-11T04:59:54.857Z,6.99
2023-04-11T05:02:21.802Z,6.98
2023-04-11T05:04:51.198Z,6.97
2023-04-11T05:07:18.261Z,6.98
2023-04-11T05:09:44.929Z,6.98
2023-04-11T05:12:11.577Z,7.00
2023-04-11T05:14:38.061Z,7.23
2023-04-11T05:17:04.918Z,7.28
2023-04-11T05:19:32.323Z,7.61
2023-04-11T05:21:58.849Z,8.78
2023-04-11T05:24:25.608Z,9.72
2023-04-11T05:26:52.061Z,10.51
2023-04-11T05:29:18.497Z,10.77
2023-04-11T05:31:44.873Z,10.72
2023-04-11T05:34:11.280Z,10.58
2023-04-11T05:36:37.714Z,11.00
2023-04-11T05:39:04.550Z,11.85
2023-04-11T05:41:31.196Z,10.81
2023-04-11T05:43:57.742Z,10.03
2023-04-11T05:46:24.750Z,10.20
2023-04-11T05:48:51.270Z,10.60
2023-04-11T05:51:17.682Z,11.23
2023-04-11T05:53:44.823Z,11.36
2023-04-11T05:56:12.902Z,12.42
2023-04-11T05:58:43.035Z,13.31
2023-04-11T06:01:14.289Z,13.43
2023-04-11T06:03:40.856Z,14.22
2023-04-11T06:06:07.923Z,14.84
2023-04-11T06:08:34.447Z,15.43
2023-04-11T06:11:00.859Z,15.58
2023-04-11T06:13:27.345Z,15.66
2023-04-11T06:15:53.820Z,15.78
2023-04-11T06:18:20.265Z,15.76
2023-04-11T06:20:47.114Z,16.31
2023-04-11T06:23:13.501Z,16.94
2023-04-11T06:25:40.290Z,16.69
2023-04-11T06:28:06.688Z,17.04
2023-04-11T06:30:33.062Z,17.10
2023-04-11T06:32:59.475Z,17.25
2023-04-11T06:35:26.084Z,17.28
2023-04-11T06:37:53.655Z,16.91
2023-04-11T06:40:20.552Z,16.93
2023-04-11T06:42:47.578Z,17.07
2023-04-11T06:45:14.017Z,17.09
2023-04-11T06:47:40.646Z,17.50
2023-04-11T06:50:07.824Z,17.45
2023-04-11T06:52:34.251Z,16.82
2023-04-11T06:55:00.639Z,15.69
2023-04-11T06:57:27.073Z,15.50
2023-04-11T06:59:53.509Z,15.97
2023-04-11T07:02:20.004Z,15.58
2023-04-11T07:04:46.662Z,15.81
2023-04-11T07:07:13.214Z,15.62
2023-04-11T07:09:39.756Z,15.39
2023-04-11T07:12:06.317Z,15.73
2023-04-11T07:14:32.748Z,15.76
2023-04-11T07:16:59.231Z,15.09
2023-04-11T07:19:25.648Z,15.77
2023-04-11T07:21:52.347Z,15.48
2023-04-11T07:24:19.039Z,14.04
2023-04-11T07:26:46.550Z,14.42
2023-04-11T07:29:14.759Z,13.97
2023-04-11T07:31:41.678Z,14.67
2023-04-11T07:34:08.284Z,14.43
2023-04-11T07:36:34.939Z,15.14
2023-04-11T07:39:01.470Z,15.67
2023-04-11T07:41:27.903Z,15.70
2023-04-11T07:43:54.461Z,15.71
2023-04-11T07:46:21.098Z,16.64
2023-04-11T07:48:47.496Z,17.58
2023-04-11T07:51:13.914Z,17.20
2023-04-11T07:53:40.353Z,15.41
2023-04-11T07:56:07.143Z,13.85
2023-04-11T07:58:33.811Z,13.14
2023-04-11T08:01:02.758Z,13.31
2023-04-11T08:03:30.081Z,13.87
2023-04-11T08:05:56.688Z,13.47
2023-04-11T08:08:23.161Z,13.09
2023-04-11T08:10:52.113Z,13.19
2023-04-11T08:13:18.822Z,13.33
2023-04-11T08:15:45.198Z,13.26
2023-04-11T08:18:12.226Z,12.93
2023-04-11T08:20:40.634Z,12.66
2023-04-11T08:23:08.666Z,12.70
2023-04-11T08:25:36.468Z,12.75
2023-04-11T08:28:04.621Z,12.66
2023-04-11T08:30:31.141Z,12.31
2023-04-11T08:32:57.977Z,12.43
2023-04-11T08:35:24.498Z,12.01
2023-04-11T08:37:50.860Z,11.53
2023-04-11T08:40:17.541Z,11.57
2023-04-11T08:42:44.527Z,11.40
2023-04-11T08:45:11.407Z,11.23
2023-04-11T08:47:37.971Z,11.67
2023-04-11T08:50:07.953Z,11.82
2023-04-11T08:52:35.641Z,12.17
2023-04-11T08:55:02.123Z,12.39
2023-04-11T08:57:34.750Z,12.43
2023-04-11T09:00:19.029Z,12.24
2023-04-11T09:03:07.777Z,11.87
2023-04-11T09:05:38.180Z,11.33
2023-04-11T09:08:09.776Z,10.99
2023-04-11T09:10:37.799Z,10.82
2023-04-11T09:13:19.653Z,10.70
2023-04-11T09:15:46.112Z,10.55
2023-04-11T09:18:31.606Z,10.41
2023-04-11T09:21:05.659Z,10.40
2023-04-11T09:23:32.155Z,10.43
2023-04-11T09:25:58.604Z,10.48
2023-04-11T09:28:25.788Z,10.42
2023-04-11T09:30:54.423Z,10.29
2023-04-11T09:33:23.443Z,10.33
2023-04-11T09:35:52.440Z,10.75
2023-04-11T09:38:36.095Z,10.99
2023-04-11T09:41:04.364Z,10.91
2023-04-11T09:43:55.892Z,11.09
2023-04-11T09:46:22.709Z,11.32
2023-04-11T09:48:50.445Z,11.65
2023-04-11T09:51:34.490Z,11.64
2023-04-11T09:54:03.467Z,12.04
2023-04-11T09:56:31.137Z,12.30
2023-04-11T09:58:59.801Z,12.22
2023-04-11T10:01:26.237Z,11.96
2023-04-11T10:03:54.061Z,11.86
2023-04-11T10:07:17.060Z,12.34
2023-04-11T10:09:45.850Z,12.57
2023-04-11T10:12:12.341Z,12.71
2023-04-11T10:14:38.701Z,12.84
2023-04-11T10:17:19.783Z,12.97
2023-04-11T10:19:49.253Z,13.04
2023-04-11T10:22:41.556Z,12.94
2023-04-11T10:25:21.752Z,13.02
2023-04-11T10:27:50.057Z,12.74
2023-04-11T10:30:16.700Z,12.56
2023-04-11T10:33:13.006Z,12.88
2023-04-11T10:36:05.992Z,13.33
2023-04-11T10:38:47.041Z,13.33
2023-04-11T10:41:34.135Z,13.55
2023-04-11T10:44:24.685Z,14.04
2023-04-11T10:46:55.780Z,13.91
2023-04-11T10:49:37.140Z,13.61
2023-04-11T10:52:23.678Z,13.42
2023-04-11T10:54:53.566Z,13.61
2023-04-11T10:57:21.521Z,13.34
2023-04-11T10:59:50.883Z,13.48
2023-04-11T11:02:19.429Z,13.68
2023-04-11T11:04:46.723Z,13.75
2023-04-11T11:07:18.758Z,13.78
2023-04-11T11:09:49.597Z,13.71
2023-04-11T11:12:17.094Z,13.70
2023-04-11T11:14:45.724Z,13.65
2023-04-11T11:17:16.683Z,13.53
2023-04-11T11:19:44.990Z,13.84
2023-04-11T11:22:19.007Z,13.72
2023-04-11T11:24:45.607Z,13.65
2023-04-11T11:27:22.795Z,13.77
2023-04-11T11:29:49.896Z,13.84
2023-04-11T11:32:27.944Z,13.83
2023-04-11T11:34:55.252Z,13.79
2023-04-11T11:37:21.871Z,13.69
2023-04-11T11:39:49.198Z,13.78
2023-04-11T11:42:16.024Z,14.07
2023-04-11T11:44:42.738Z,13.98
2023-04-11T11:47:12.697Z,13.71
2023-04-11T11:49:51.082Z,13.61
2023-04-11T11:52:39.675Z,13.48
2023-04-11T11:55:11.285Z,13.55
2023-04-11T11:57:43.613Z,13.53
2023-04-11T12:00:10.896Z,13.75
2023-04-11T12:02:39.140Z,13.95
2023-04-11T12:05:07.764Z,14.01
2023-04-11T12:07:37.197Z,13.95
2023-04-11T12:10:10.726Z,14.04
2023-04-11T12:12:41.797Z,14.21
2023-04-11T12:15:12.867Z,14.39
2023-04-11T12:17:40.315Z,14.56
2023-04-11T12:20:08.309Z,14.42
2023-04-11T12:22:35.259Z,14.31
2023-04-11T12:25:09.768Z,14.33
2023-04-11T12:27:37.592Z,14.27
2023-04-11T12:30:04.524Z,14.37
2023-04-11T12:32:33.869Z,14.68
2023-04-11T12:35:01.548Z,14.23
2023-04-11T12:37:27.949Z,14.02
2023-04-11T12:39:54.865Z,13.77
2023-04-11T12:42:26.523Z,13.86
2023-04-11T12:44:53.764Z,13.96
2023-04-11T12:47:20.268Z,13.90
2023-04-11T12:49:46.733Z,13.83
2023-04-11T12:52:13.119Z,13.46
2023-04-11T12:54:39.750Z,13.73
2023-04-11T12:57:07.543Z,13.68
2023-04-11T12:59:33.988Z,13.61
2023-04-11T13:02:00.569Z,13.73
2023-04-11T13:04:27.407Z,14.10
2023-04-11T13:06:53.904Z,14.40
2023-04-11T13:09:20.884Z,14.73
2023-04-11T13:11:47.407Z,14.56
2023-04-11T13:14:13.790Z,14.69
2023-04-11T13:16:40.307Z,14.49
2023-04-11T13:19:06.776Z,14.55
2023-04-11T13:21:33.385Z,14.79
2023-04-11T13:23:59.867Z,15.01
2023-04-11T13:26:26.530Z,14.90
2023-04-11T13:28:52.968Z,15.11
2023-04-11T13:31:19.499Z,15.21
2023-04-11T13:33:47.887Z,15.14
2023-04-11T13:36:14.369Z,15.31
2023-04-11T13:38:41.057Z,15.53
2023-04-11T13:41:07.490Z,15.55
2023-04-11T13:43:33.923Z,15.66
2023-04-11T13:46:00.331Z,15.54
2023-04-11T13:48:26.735Z,15.41
2023-04-11T13:50:53.171Z,15.51
2023-04-11T13:53:19.654Z,15.28
2023-04-11T13:55:48.291Z,15.32
2023-04-11T13:58:14.724Z,15.60
2023-04-11T14:00:41.205Z,15.50
2023-04-11T14:03:07.750Z,15.35
2023-04-11T14:05:35.617Z,15.20
2023-04-11T14:08:03.150Z,15.26
2023-04-11T14:10:29.903Z,15.42
2023-04-11T14:12:56.319Z,15.39
2023-04-11T14:15:22.784Z,15.36
2023-04-11T14:17:49.405Z,15.40
2023-04-11T14:20:15.852Z,15.34
2023-04-11T14:22:43.755Z,15.29
2023-04-11T14:25:11.152Z,15.33
2023-04-11T14:27:39.398Z,15.30
2023-04-11T14:30:06.753Z,15.43
2023-04-11T14:32:33.154Z,15.25
2023-04-11T14:35:01.908Z,15.30
2023-04-11T14:37:28.616Z,15.05
2023-04-11T14:39:55.264Z,14.91
2023-04-11T14:42:21.775Z,14.78
2023-04-11T14:44:50.313Z,14.65
2023-04-11T14:47:17.072Z,14.71
2023-04-11T14:49:44.004Z,14.74
2023-04-11T14:52:10.599Z,14.86
2023-04-11T14:54:37.338Z,14.99
2023-04-11T14:57:03.884Z,15.10
2023-04-11T14:59:30.764Z,15.20
2023-04-11T15:01:57.698Z,14.98
2023-04-11T15:04:24.264Z,14.96
2023-04-11T15:06:51.250Z,15.01
2023-04-11T15:09:20.168Z,15.04
2023-04-11T15:11:46.971Z,15.11
2023-04-11T15:14:13.646Z,15.11
2023-04-11T15:16:40.440Z,15.27
2023-04-11T15:19:08.940Z,15.30
2023-04-11T15:21:35.663Z,15.33
2023-04-11T15:24:07.166Z,15.28
2023-04-11T15:26:34.198Z,15.25
2023-04-11T15:29:00.770Z,15.09
2023-04-11T15:31:27.389Z,15.11
2023-04-11T15:33:57.050Z,15.29
2023-04-11T15:36:24.112Z,15.46
2023-04-11T15:38:50.652Z,15.62
2023-04-11T15:41:17.242Z,15.46
2023-04-11T15:43:43.938Z,15.57
2023-04-11T15:46:10.385Z,15.66
2023-04-11T15:48:36.841Z,15.63
2023-04-11T15:51:10.781Z,15.65
2023-04-11T15:53:37.470Z,15.61
2023-04-11T15:56:06.052Z,15.38
2023-04-11T15:58:33.862Z,15.33
2023-04-11T16:01:01.693Z,15.47
2023-04-11T16:03:31.726Z,15.40
2023-04-11T16:05:58.942Z,15.48
2023-04-11T16:08:28.731Z,15.54
2023-04-11T16:10:55.454Z,15.53
2023-04-11T16:13:21.877Z,15.46
2023-04-11T16:15:48.250Z,15.32
2023-04-11T16:18:15.847Z,15.32
2023-04-11T16:20:42.258Z,15.24
2023-04-11T16:23:08.657Z,15.08
2023-04-11T16:25:35.101Z,15.06
2023-04-11T16:28:01.882Z,15.07
2023-04-11T16:30:28.380Z,15.21
2023-04-11T16:32:54.808Z,15.24
2023-04-11T16:35:21.287Z,15.23
2023-04-11T16:37:47.750Z,15.03
2023-04-11T16:40:14.395Z,14.93
2023-04-11T16:42:41.413Z,14.63
2023-04-11T16:45:09.726Z,14.50
2023-04-11T16:47:36.407Z,14.27
2023-04-11T16:50:03.821Z,14.12
2023-04-11T16:52:30.476Z,13.95
2023-04-11T16:54:56.903Z,13.84
2023-04-11T16:57:24.897Z,13.72
2023-04-11T16:59:51.597Z,13.59
2023-04-11T17:02:18.343Z,13.53
2023-04-11T17:04:45.793Z,13.49
2023-04-11T17:07:12.261Z,13.44
2023-04-11T17:09:38.724Z,13.25
2023-04-11T17:12:05.362Z,13.13
2023-04-11T17:14:31.885Z,12.97
2023-04-11T17:16:58.371Z,12.87
2023-04-11T17:19:25.664Z,12.79
2023-04-11T17:21:52.119Z,12.68
2023-04-11T17:24:18.509Z,12.59
2023-04-11T17:26:45.042Z,12.50
2023-04-11T17:29:11.472Z,12.41
2023-04-11T17:31:38.415Z,12.28
2023-04-11T17:34:04.861Z,12.22
2023-04-11T17:36:31.406Z,12.18
2023-04-11T17:38:57.931Z,12.13
2023-04-11T17:41:24.345Z,12.10
2023-04-11T17:43:50.793Z,12.07
2023-04-11T17:46:17.353Z,12.03
2023-04-11T17:48:43.896Z,11.96
2023-04-11T17:51:10.378Z,11.88
2023-04-11T17:53:36.975Z,11.84
2023-04-11T17:56:05.806Z,11.82
2023-04-11T17:58:32.801Z,11.75
2023-04-11T18:00:59.579Z,11.70
2023-04-11T18:03:26.459Z,11.63
2023-04-11T18:05:54.428Z,11.56
2023-04-11T18:08:26.026Z,11.50
2023-04-11T18:10:59.875Z,11.40
2023-04-11T18:13:27.342Z,11.33
2023-04-11T18:15:53.906Z,11.29
2023-04-11T18:18:20.397Z,11.21
2023-04-11T18:20:46.824Z,11.13
2023-04-11T18:23:13.259Z,10.97
2023-04-11T18:25:39.769Z,10.89
2023-04-11T18:28:06.357Z,10.84
2023-04-11T18:30:32.770Z,10.79
2023-04-11T18:32:59.185Z,10.77
2023-04-11T18:35:25.857Z,10.72
2023-04-11T18:37:53.336Z,10.66
2023-04-11T18:40:19.870Z,10.59
2023-04-11T18:42:51.302Z,10.56
2023-04-11T18:45:20.661Z,10.56
2023-04-11T18:47:47.461Z,10.56
2023-04-11T18:50:17.334Z,10.53
2023-04-11T18:52:45.077Z,10.48
2023-04-11T18:55:12.278Z,10.47
2023-04-11T18:57:38.989Z,10.42
2023-04-11T19:00:25.080Z,10.39
2023-04-11T19:02:52.239Z,10.37
2023-04-11T19:05:19.357Z,10.40
2023-04-11T19:07:46.536Z,10.41
2023-04-11T19:10:13.078Z,10.40
2023-04-11T19:12:41.065Z,10.38
2023-04-11T19:15:08.970Z,10.36
2023-04-11T19:17:38.331Z,10.30
2023-04-11T19:20:06.960Z,10.28
2023-04-11T19:22:34.572Z,10.29
2023-04-11T19:25:01.074Z,10.31
2023-04-11T19:27:27.563Z,10.29
2023-04-11T19:29:54.106Z,10.30
2023-04-11T19:32:20.923Z,10.32
2023-04-11T19:34:49.411Z,10.31
2023-04-11T19:37:16.598Z,10.31
2023-04-11T19:39:43.779Z,10.31
2023-04-11T19:42:10.601Z,10.30
2023-04-11T19:44:37.665Z,10.27
2023-04-11T19:47:04.232Z,10.23
2023-04-11T19:49:30.633Z,10.18
2023-04-11T19:51:57.050Z,10.14
2023-04-11T19:54:23.718Z,10.09
2023-04-11T19:56:52.721Z,10.05
2023-04-11T19:59:19.376Z,10.04
2023-04-11T20:01:46.387Z,10.03
2023-04-11T20:04:13.767Z,9.99
2023-04-11T20:06:43.902Z,9.98
2023-04-11T20:09:11.937Z,9.97
2023-04-11T20:11:39.445Z,9.96
2023-04-11T20:14:07.576Z,9.98
2023-04-11T20:16:34.099Z,10.00
2023-04-11T20:19:01.790Z,10.02
2023-04-11T20:21:28.490Z,10.03
2023-04-11T20:23:55.085Z,10.06
2023-04-11T20:26:21.770Z,10.07
2023-04-11T20:28:49.677Z,10.05
2023-04-11T20:31:16.310Z,10.04
2023-04-11T20:33:44.203Z,10.03
2023-04-11T20:36:11.293Z,10.08
2023-04-11T20:38:37.777Z,10.11
2023-04-11T20:41:05.700Z,10.10
2023-04-11T20:43:32.249Z,10.09
2023-04-11T20:45:58.673Z,10.09
2023-04-11T20:48:26.018Z,10.11
2023-04-11T20:50:55.807Z,10.10
2023-04-11T20:53:22.314Z,10.11
2023-04-11T20:55:48.800Z,10.10
2023-04-11T20:58:18.489Z,10.10
2023-04-11T21:00:44.983Z,10.15
2023-04-11T21:03:11.778Z,10.15
2023-04-11T21:05:44.293Z,10.14
2023-04-11T21:08:13.772Z,10.13
2023-04-11T21:10:40.420Z,10.10
2023-04-11T21:13:07.483Z,10.08
2023-04-11T21:15:34.633Z,10.06
2023-04-11T21:18:01.261Z,10.05
2023-04-11T21:20:27.763Z,10.04
2023-04-11T21:22:54.305Z,10.04
2023-04-11T21:25:21.862Z,10.02
2023-04-11T21:27:48.330Z,10.05
2023-04-11T21:30:14.939Z,10.06
2023-04-11T21:32:41.952Z,10.03
2023-04-11T21:35:10.422Z,10.03
2023-04-11T21:37:37.138Z,10.02
2023-04-11T21:40:03.973Z,10.01
2023-04-11T21:42:30.730Z,9.99
2023-04-11T21:44:57.142Z,9.98
2023-04-11T21:47:23.676Z,9.97
2023-04-11T21:49:50.383Z,9.98
2023-04-11T21:52:17.061Z,9.97
2023-04-11T21:54:43.765Z,9.95
2023-04-11T21:57:10.938Z,9.96
2023-04-11T21:59:38.625Z,9.96
2023-04-11T22:02:05.419Z,9.96
2023-04-11T22:07:01.166Z,9.93
2023-04-11T22:09:27.560Z,9.94
2023-04-11T22:11:53.963Z,9.91
2023-04-11T22:14:20.430Z,9.92
2023-04-11T22:16:49.312Z,9.92
2023-04-11T22:19:19.191Z,9.87
2023-04-11T22:21:55.489Z,9.86
2023-04-11T22:24:30.932Z,9.83
2023-04-11T22:26:58.411Z,9.80
2023-04-11T22:29:30.392Z,9.80
2023-04-11T22:31:58.220Z,9.77
2023-04-11T22:34:25.727Z,9.74
2023-04-11T22:36:52.942Z,9.70
2023-04-11T22:39:20.121Z,9.69
2023-04-11T22:41:50.407Z,9.65
2023-04-11T22:44:16.972Z,9.63
2023-04-11T22:46:58.987Z,9.61
2023-04-11T22:49:25.596Z,9.57
2023-04-11T22:51:53.307Z,9.51
2023-04-11T22:54:19.686Z,9.48
2023-04-11T22:56:48.506Z,9.45
2023-04-11T22:59:14.929Z,9.39
2023-04-11T23:01:41.439Z,9.37
2023-04-11T23:04:08.360Z,9.32
2023-04-11T23:06:34.824Z,9.32
2023-04-11T23:09:01.392Z,9.28
2023-04-11T23:11:27.789Z,9.27
2023-04-11T23:13:54.474Z,9.22
2023-04-11T23:16:22.008Z,9.21
2023-04-11T23:18:48.455Z,9.17
2023-04-11T23:21:14.950Z,9.15
2023-04-11T23:23:41.353Z,9.14
2023-04-11T23:26:09.247Z,9.11
2023-04-11T23:28:35.647Z,9.08
2023-04-11T23:31:02.129Z,9.08
2023-04-11T23:33:28.561Z,9.07
2023-04-11T23:35:54.998Z,9.06
2023-04-11T23:38:23.395Z,9.04
2023-04-11T23:40:50.222Z,9.02
2023-04-11T23:43:16.864Z,9.01
2023-04-11T23:45:43.688Z,8.98
2023-04-11T23:48:10.126Z,8.94
2023-04-11T23:50:36.766Z,8.93
2023-04-11T23:53:03.174Z,8.89
2023-04-11T23:55:29.846Z,8.85
2023-04-11T23:57:56.552Z,8.82
